LSP184 SCCF-SCFA
Flight info
| Callsign | LSP184 |
|---|---|
| Flight time | 0h 21m |
| Altitude | 18000 |
| Route | TATIO3P TATIO EKENO5 |
| Aircraft | B736/M-SDE2E3FGHIRWXY/LB1 |
Departure
| Time | 2026-04-26 22:22 |
|---|---|
| Airport | El Loa Airport (SCCF) |
Arrival
| Time | 2026-04-26 22:44 |
|---|---|
| Airport | Andrés Sabella Gálvez International Airport (SCFA) |
| Time | Latitude | Longitude | Altitude | Speed | Heading |
|---|---|---|---|---|---|
| 2026-04-26 21:59 | -22.49595 | -68.90757 | 7505 ft | 0 kts | 3° |
| 2026-04-26 22:11 | -22.49615 | -68.90759 | 7504 ft | 4 kts | 13° |
| 2026-04-26 22:11 | -22.49640 | -68.90769 | 7495 ft | 4 kts | 38° |
| 2026-04-26 22:12 | -22.49656 | -68.90790 | 7494 ft | 4 kts | 79° |
| 2026-04-26 22:12 | -22.49657 | -68.90802 | 7498 ft | 1 kts | 95° |
| 2026-04-26 22:15 | -22.49657 | -68.90801 | 7505 ft | 1 kts | 95° |
| 2026-04-26 22:15 | -22.49663 | -68.90779 | 7504 ft | 4 kts | 128° |
| 2026-04-26 22:15 | -22.49698 | -68.90772 | 7501 ft | 7 kts | 182° |
| 2026-04-26 22:15 | -22.49752 | -68.90778 | 7492 ft | 8 kts | 185° |
| 2026-04-26 22:16 | -22.49800 | -68.90760 | 7502 ft | 7 kts | 132° |
| 2026-04-26 22:16 | -22.49813 | -68.90708 | 7512 ft | 7 kts | 94° |
| 2026-04-26 22:16 | -22.49816 | -68.90655 | 7510 ft | 7 kts | 94° |
| 2026-04-26 22:16 | -22.49819 | -68.90603 | 7516 ft | 7 kts | 94° |
| 2026-04-26 22:17 | -22.49823 | -68.90552 | 7520 ft | 7 kts | 95° |
| 2026-04-26 22:17 | -22.49827 | -68.90497 | 7523 ft | 9 kts | 95° |
| 2026-04-26 22:17 | -22.49832 | -68.90430 | 7524 ft | 10 kts | 94° |
| 2026-04-26 22:17 | -22.49836 | -68.90346 | 7532 ft | 12 kts | 94° |
| 2026-04-26 22:18 | -22.49843 | -68.90245 | 7540 ft | 15 kts | 94° |
| 2026-04-26 22:18 | -22.49851 | -68.90128 | 7548 ft | 16 kts | 94° |
| 2026-04-26 22:18 | -22.49860 | -68.90008 | 7556 ft | 16 kts | 95° |
| 2026-04-26 22:18 | -22.49867 | -68.89893 | 7563 ft | 15 kts | 94° |
| 2026-04-26 22:19 | -22.49875 | -68.89781 | 7571 ft | 15 kts | 94° |
| 2026-04-26 22:19 | -22.49883 | -68.89662 | 7578 ft | 17 kts | 94° |
| 2026-04-26 22:19 | -22.49892 | -68.89538 | 7587 ft | 16 kts | 95° |
| 2026-04-26 22:19 | -22.49899 | -68.89417 | 7594 ft | 16 kts | 94° |
| 2026-04-26 22:20 | -22.49907 | -68.89298 | 7602 ft | 16 kts | 94° |
| 2026-04-26 22:20 | -22.49916 | -68.89172 | 7610 ft | 17 kts | 95° |
| 2026-04-26 22:20 | -22.49925 | -68.89038 | 7619 ft | 18 kts | 93° |
| 2026-04-26 22:20 | -22.49933 | -68.88917 | 7627 ft | 12 kts | 94° |
| 2026-04-26 22:21 | -22.49955 | -68.88847 | 7633 ft | 10 kts | 144° |
| 2026-04-26 22:21 | -22.50031 | -68.88841 | 7636 ft | 13 kts | 182° |
| 2026-04-26 22:21 | -22.50104 | -68.88898 | 7630 ft | 19 kts | 268° |
| 2026-04-26 22:21 | -22.50087 | -68.89174 | 7613 ft | 65 kts | 274° |
| 2026-04-26 22:22 | -22.50036 | -68.89938 | 7562 ft | 134 kts | 274° |
| 2026-04-26 22:22 | -22.49946 | -68.91091 | 7784 ft | 162 kts | 276° |
| 2026-04-26 22:22 | -22.49838 | -68.92390 | 8036 ft | 184 kts | 274° |
| 2026-04-26 22:22 | -22.49777 | -68.93657 | 9087 ft | 154 kts | 273° |
| 2026-04-26 22:23 | -22.49708 | -68.94743 | 10041 ft | 145 kts | 274° |
| 2026-04-26 22:23 | -22.49627 | -68.95948 | 10372 ft | 178 kts | 274° |
| 2026-04-26 22:23 | -22.49527 | -68.97399 | 10680 ft | 209 kts | 274° |
| 2026-04-26 22:23 | -22.49409 | -68.99103 | 10911 ft | 244 kts | 274° |
| 2026-04-26 22:24 | -22.49272 | -69.01080 | 11102 ft | 282 kts | 273° |
| 2026-04-26 22:24 | -22.49582 | -69.03275 | 11330 ft | 314 kts | 249° |
| 2026-04-26 22:24 | -22.50575 | -69.05513 | 11799 ft | 344 kts | 244° |
| 2026-04-26 22:24 | -22.51735 | -69.07889 | 12061 ft | 366 kts | 243° |
| 2026-04-26 22:25 | -22.52958 | -69.10345 | 12662 ft | 375 kts | 243° |
| 2026-04-26 22:25 | -22.54177 | -69.12799 | 13529 ft | 376 kts | 243° |
| 2026-04-26 22:25 | -22.55419 | -69.15321 | 14208 ft | 384 kts | 243° |
| 2026-04-26 22:25 | -22.56670 | -69.17883 | 14940 ft | 386 kts | 243° |
| 2026-04-26 22:26 | -22.57935 | -69.20493 | 15782 ft | 385 kts | 242° |
| 2026-04-26 22:26 | -22.59160 | -69.23029 | 16549 ft | 387 kts | 242° |
| 2026-04-26 22:26 | -22.60410 | -69.25626 | 17272 ft | 386 kts | 242° |
| 2026-04-26 22:26 | -22.61647 | -69.28199 | 17586 ft | 385 kts | 242° |
| 2026-04-26 22:27 | -22.62902 | -69.30812 | 17625 ft | 399 kts | 242° |
| 2026-04-26 22:27 | -22.64211 | -69.33536 | 17639 ft | 414 kts | 242° |
| 2026-04-26 22:27 | -22.65560 | -69.36347 | 17649 ft | 425 kts | 242° |
| 2026-04-26 22:27 | -22.66915 | -69.39173 | 17665 ft | 428 kts | 242° |
| 2026-04-26 22:28 | -22.68284 | -69.42030 | 17755 ft | 427 kts | 242° |
| 2026-04-26 22:28 | -22.69648 | -69.44880 | 17887 ft | 426 kts | 242° |
| 2026-04-26 22:28 | -22.70998 | -69.47701 | 17994 ft | 420 kts | 242° |
| 2026-04-26 22:28 | -22.72347 | -69.50520 | 18035 ft | 425 kts | 242° |
| 2026-04-26 22:29 | -22.73711 | -69.53374 | 18045 ft | 426 kts | 242° |
| 2026-04-26 22:29 | -22.75071 | -69.56220 | 18043 ft | 423 kts | 242° |
| 2026-04-26 22:29 | -22.76423 | -69.59051 | 18038 ft | 422 kts | 242° |
| 2026-04-26 22:29 | -22.77768 | -69.61869 | 18042 ft | 421 kts | 242° |
| 2026-04-26 22:30 | -22.79115 | -69.64691 | 18038 ft | 422 kts | 242° |
| 2026-04-26 22:30 | -22.80447 | -69.67485 | 18038 ft | 422 kts | 242° |
| 2026-04-26 22:30 | -22.81716 | -69.70360 | 18031 ft | 423 kts | 245° |
| 2026-04-26 22:30 | -22.82897 | -69.73295 | 18024 ft | 424 kts | 246° |
| 2026-04-26 22:31 | -22.84042 | -69.76239 | 18015 ft | 424 kts | 246° |
| 2026-04-26 22:31 | -22.85187 | -69.79187 | 18001 ft | 425 kts | 246° |
| 2026-04-26 22:31 | -22.86342 | -69.82136 | 18003 ft | 425 kts | 246° |
| 2026-04-26 22:31 | -22.87505 | -69.85081 | 17996 ft | 425 kts | 245° |
| 2026-04-26 22:32 | -22.88673 | -69.88019 | 17985 ft | 424 kts | 245° |
| 2026-04-26 22:32 | -22.89843 | -69.90955 | 17988 ft | 422 kts | 245° |
| 2026-04-26 22:32 | -22.90997 | -69.93847 | 17227 ft | 415 kts | 245° |
| 2026-04-26 22:32 | -22.92134 | -69.96698 | 16415 ft | 407 kts | 246° |
| 2026-04-26 22:33 | -22.93247 | -69.99490 | 15539 ft | 400 kts | 246° |
| 2026-04-26 22:33 | -22.95427 | -70.04963 | 13853 ft | 392 kts | 246° |
| 2026-04-26 22:33 | -22.96499 | -70.07659 | 13300 ft | 380 kts | 247° |
| 2026-04-26 22:34 | -22.97518 | -70.10222 | 13064 ft | 361 kts | 247° |
| 2026-04-26 22:34 | -22.98498 | -70.12692 | 12540 ft | 354 kts | 247° |
| 2026-04-26 22:34 | -22.99463 | -70.15128 | 11937 ft | 347 kts | 247° |
| 2026-04-26 22:34 | -23.00400 | -70.17497 | 11344 ft | 337 kts | 247° |
| 2026-04-26 22:35 | -23.01314 | -70.19808 | 10800 ft | 329 kts | 247° |
| 2026-04-26 22:35 | -23.02207 | -70.22068 | 10231 ft | 323 kts | 246° |
| 2026-04-26 22:35 | -23.03074 | -70.24262 | 9816 ft | 312 kts | 246° |
| 2026-04-26 22:35 | -23.03894 | -70.26336 | 9797 ft | 288 kts | 246° |
| 2026-04-26 22:36 | -23.04668 | -70.28296 | 9452 ft | 279 kts | 246° |
| 2026-04-26 22:36 | -23.05429 | -70.30223 | 8947 ft | 277 kts | 246° |
| 2026-04-26 22:36 | -23.06188 | -70.32146 | 8448 ft | 275 kts | 246° |
| 2026-04-26 22:36 | -23.06941 | -70.34057 | 8016 ft | 273 kts | 246° |
| 2026-04-26 22:37 | -23.07683 | -70.35937 | 7553 ft | 270 kts | 247° |
| 2026-04-26 22:37 | -23.08421 | -70.37807 | 7056 ft | 268 kts | 246° |
| 2026-04-26 22:37 | -23.09468 | -70.39450 | 6623 ft | 267 kts | 220° |
| 2026-04-26 22:37 | -23.11104 | -70.40400 | 6284 ft | 270 kts | 196° |
| 2026-04-26 22:38 | -23.12948 | -70.40742 | 5991 ft | 269 kts | 187° |
| 2026-04-26 22:38 | -23.14817 | -70.40902 | 5682 ft | 269 kts | 186° |
| 2026-04-26 22:38 | -23.16670 | -70.41103 | 5366 ft | 267 kts | 188° |
| 2026-04-26 22:38 | -23.18507 | -70.41335 | 5087 ft | 264 kts | 188° |
| 2026-04-26 22:39 | -23.20302 | -70.41557 | 4812 ft | 262 kts | 187° |
| 2026-04-26 22:39 | -23.22097 | -70.41775 | 4513 ft | 255 kts | 187° |
| 2026-04-26 22:39 | -23.23835 | -70.41987 | 4230 ft | 247 kts | 187° |
| 2026-04-26 22:39 | -23.25515 | -70.42191 | 3961 ft | 239 kts | 187° |
| 2026-04-26 22:40 | -23.27137 | -70.42390 | 3733 ft | 228 kts | 186° |
| 2026-04-26 22:40 | -23.28676 | -70.42578 | 3478 ft | 216 kts | 186° |
| 2026-04-26 22:40 | -23.30133 | -70.42756 | 3230 ft | 205 kts | 186° |
| 2026-04-26 22:40 | -23.31508 | -70.42923 | 3014 ft | 194 kts | 186° |
| 2026-04-26 22:41 | -23.32799 | -70.43081 | 2793 ft | 179 kts | 186° |
| 2026-04-26 22:41 | -23.34006 | -70.43228 | 2612 ft | 170 kts | 186° |
| 2026-04-26 22:41 | -23.35142 | -70.43366 | 2369 ft | 158 kts | 186° |
| 2026-04-26 22:41 | -23.36177 | -70.43493 | 2147 ft | 144 kts | 187° |
| 2026-04-26 22:42 | -23.37121 | -70.43608 | 1908 ft | 130 kts | 187° |
| 2026-04-26 22:42 | -23.37998 | -70.43715 | 1733 ft | 125 kts | 187° |
| 2026-04-26 22:42 | -23.38852 | -70.43818 | 1482 ft | 122 kts | 187° |
| 2026-04-26 22:42 | -23.39674 | -70.43907 | 1344 ft | 118 kts | 186° |
| 2026-04-26 22:43 | -23.40498 | -70.44022 | 1117 ft | 119 kts | 187° |
| 2026-04-26 22:43 | -23.41307 | -70.44116 | 944 ft | 116 kts | 185° |
| 2026-04-26 22:43 | -23.42122 | -70.44217 | 747 ft | 118 kts | 187° |
| 2026-04-26 22:43 | -23.42938 | -70.44316 | 559 ft | 117 kts | 187° |
| 2026-04-26 22:44 | -23.43729 | -70.44418 | 413 ft | 111 kts | 186° |
| 2026-04-26 22:44 | -23.44284 | -70.44486 | 382 ft | 50 kts | 186° |
| 2026-04-26 22:44 | -23.44515 | -70.44513 | 373 ft | 21 kts | 186° |
| 2026-04-26 22:44 | -23.44592 | -70.44477 | 371 ft | 12 kts | 102° |
| 2026-04-26 22:45 | -23.44593 | -70.44448 | 371 ft | 1 kts | 87° |
| 2026-04-26 22:45 | -23.44592 | -70.44440 | 371 ft | 1 kts | 86° |
| 2026-04-26 22:45 | -23.44591 | -70.44422 | 371 ft | 4 kts | 87° |
| 2026-04-26 22:45 | -23.44592 | -70.44379 | 371 ft | 7 kts | 93° |
| 2026-04-26 22:46 | -23.44616 | -70.44326 | 370 ft | 9 kts | 146° |
| 2026-04-26 22:46 | -23.44681 | -70.44303 | 368 ft | 11 kts | 165° |
| 2026-04-26 22:46 | -23.44763 | -70.44278 | 370 ft | 11 kts | 164° |
| 2026-04-26 22:46 | -23.44806 | -70.44263 | 366 ft | 5 kts | 157° |
| 2026-04-26 22:47 | -23.44825 | -70.44225 | 371 ft | 6 kts | 95° |
| 2026-04-26 22:47 | -23.44828 | -70.44180 | 366 ft | 5 kts | 95° |
| 2026-04-26 22:47 | -23.44830 | -70.44161 | 366 ft | 1 kts | 95° |